Baraboo, WI

8:22 PM CST on November 15, 2019 (GMT -0600)
Baraboo Wisconsin Dells

Weather History for KDLL - October, 2019

Change the Weather History Date:

Saturday, October 12, 2019

  Actual Average Record
Temperature  
Mean Temperature 36 °F -  
Max Temperature 43 °F 60 °F 82 °F (2008)
Min Temperature 29 °F 35 °F 20 °F (1988)
Degree Days  
Heating Degree Days 29    
Moisture  
Dew Point 27 °F    
Average Humidity 75    
Maximum Humidity 100    
Minimum Humidity 44    
Precipitation  
Precipitation 0.03 in - - ()
Sea Level Pressure  
Sea Level Pressure 29.80 in    
Wind  
Wind Speed 14 mph ()    
Max Wind Speed 24 mph    
Max Gust Speed 32 mph    
Visibility 9.1 miles    
Events Rain , Snow    
Averages and records for this station are not official NWS values.
T = Trace of Precipitation, MM = Missing Value Source: Averaged Metar Reports

Daily Weather History Graph

Daily Weather History Graph

Search for Another Location

Airport or City:

Astronomy

Oct. 12, 2019 Rise Set
Actual Time 7:09 AM CDT 6:21 PM CDT
Civil Twilight 6:40 AM CDT 6:49 PM CDT
Nautical Twilight 6:07 AM CDT 7:22 PM CDT
Astronomical Twilight 5:34 AM CDT 7:56 PM CDT
Moon 6:20 PM CDT (10/12) 5:41 AM CDT (10/12)
Length of Visible Light 12h 09m
Length of Day
11h 11m
Waxing Gibbous, 99% of the Moon is Illuminated
Oct 12
Waxing Gibbous
Oct 13
Full
Oct 21
Last Quarter
Oct 27
New
Nov 4
First Quarter

Hourly Weather History & Observations

Time (CDT) Temp. Windchill Dew Point Humidity Pressure Visibility Wind Dir Wind Speed Gust Speed Precip Events Conditions
12:15 AM 35.2 °F 24.7 °F 24.8 °F 66% 29.89 in 10.0 mi SW 18.4 mph 21.9 mph N/A   Overcast
12:35 AM 35.2 °F 24.7 °F 24.3 °F 64% 29.89 in 10.0 mi SW 18.4 mph 28.8 mph N/A   Overcast
12:55 AM 35.1 °F 24.8 °F 24.1 °F 64% 29.89 in 10.0 mi WSW 17.3 mph 25.3 mph N/A   Overcast
1:15 AM 35.1 °F 26.4 °F 23.5 °F 63% 29.89 in 10.0 mi WSW 12.7 mph 24.2 mph N/A   Overcast
1:35 AM 35.1 °F 26.9 °F 23.7 °F 63% 29.89 in 10.0 mi WSW 11.5 mph 18.4 mph N/A   Overcast
1:55 AM 34.9 °F 26.2 °F 24.1 °F 65% 29.89 in 10.0 mi WSW 12.7 mph 18.4 mph N/A   Overcast
2:15 AM 34.9 °F 27.1 °F 23.5 °F 63% 29.89 in 10.0 mi WSW 10.4 mph 25.3 mph N/A   Overcast
2:55 AM 34.7 °F 25.9 °F 23.7 °F 64% 29.87 in 10.0 mi WSW 12.7 mph 21.9 mph N/A   Overcast
3:15 AM 34.7 °F 24.3 °F 23.7 °F 64% 29.87 in 10.0 mi WSW 17.3 mph 24.2 mph N/A   Overcast
3:35 AM 34.0 °F 24.6 °F 23.4 °F 65% 29.87 in 10.0 mi SW 13.8 mph 20.7 mph N/A   Overcast
3:55 AM 33.8 °F 24.8 °F 23.2 °F 65% 29.87 in 10.0 mi WSW 12.7 mph 24.2 mph N/A   Overcast
4:15 AM 32.5 °F 21.5 °F 23.5 °F 69% 29.87 in 10.0 mi WSW 17.3 mph 21.9 mph N/A   Scattered Clouds
4:35 AM 32.0 °F 22.1 °F 23.7 °F 71% 29.86 in 10.0 mi SW 13.8 mph 20.7 mph N/A   Clear
4:55 AM 31.8 °F 21.8 °F 23.9 °F 73% 29.87 in 10.0 mi SW 13.8 mph 18.4 mph N/A   Clear
5:15 AM 31.1 °F 21.9 °F 24.1 °F 75% 29.86 in 10.0 mi SW 11.5 mph - N/A   Clear
5:35 AM 30.7 °F 21.4 °F 23.7 °F 75% 29.86 in 10.0 mi SW 11.5 mph 18.4 mph N/A   Clear
5:55 AM 30.2 °F 20.2 °F 23.5 °F 76% 29.85 in 10.0 mi SW 12.7 mph 19.6 mph N/A   Clear
6:15 AM 30.2 °F 19.3 °F 23.5 °F 76% 29.85 in 10.0 mi SSW 15.0 mph 19.6 mph N/A   Clear
6:35 AM 29.8 °F 19.3 °F 23.5 °F 77% 29.85 in 10.0 mi SW 13.8 mph 17.3 mph N/A   Clear
6:55 AM 29.7 °F 18.6 °F 23.0 °F 76% 29.85 in 10.0 mi SSW 15.0 mph - N/A   Clear
7:15 AM 29.3 °F 18.2 °F 23.2 °F 78% 29.84 in 10.0 mi SSW 15.0 mph 21.9 mph N/A   Clear
7:35 AM 29.7 °F 18.6 °F 23.0 °F 76% 29.84 in 10.0 mi SW 15.0 mph 20.7 mph N/A   Clear
7:55 AM 30.2 °F 19.8 °F 23.2 °F 75% 29.84 in 10.0 mi SSW 13.8 mph 19.6 mph N/A   Clear
8:35 AM 31.8 °F 21.4 °F 23.4 °F 71% 29.84 in 10.0 mi SW 15.0 mph 24.2 mph N/A   Clear
8:55 AM 32.0 °F 22.1 °F 23.7 °F 71% 29.84 in 10.0 mi SSW 13.8 mph 20.7 mph N/A   Clear
9:15 AM 33.1 °F 24.4 °F 23.9 °F 69% 29.82 in 10.0 mi SSW 11.5 mph 25.3 mph N/A   Clear
9:35 AM 33.8 °F 22.8 °F 23.5 °F 66% 29.82 in 10.0 mi SSW 18.4 mph 26.5 mph N/A   Clear
9:55 AM 35.1 °F 24.5 °F 24.1 °F 64% 29.82 in 10.0 mi SW 18.4 mph 26.5 mph N/A   Clear
10:15 AM 36.0 °F 25.0 °F 23.5 °F 61% 29.82 in 10.0 mi SW 20.7 mph 26.5 mph N/A   Unknown
10:35 AM 37.4 °F 27.5 °F 24.3 °F 59% 29.81 in 10.0 mi SW 18.4 mph 26.5 mph N/A   Clear
10:55 AM 37.8 °F 28.0 °F 23.4 °F 56% 29.80 in 10.0 mi WSW 18.4 mph 32.2 mph N/A   Clear
11:15 AM 37.8 °F 27.4 °F 23.4 °F 56% 29.80 in 10.0 mi SW 20.7 mph 27.6 mph N/A   Scattered Clouds
11:35 AM 38.8 °F 30.4 °F 22.6 °F 52% 29.79 in 10.0 mi SW 15.0 mph 26.5 mph N/A   Clear
11:55 AM 39.2 °F 31.2 °F 23.2 °F 53% 29.79 in 10.0 mi SW 13.8 mph 24.2 mph N/A   Clear
12:15 PM 40.5 °F 30.9 °F 23.5 °F 51% 29.78 in 10.0 mi SSW 20.7 mph 26.5 mph N/A   Mostly Cloudy
12:35 PM 41.2 °F 31.1 °F 23.7 °F 50% 29.77 in 10.0 mi SSW 24.2 mph 31.1 mph N/A   Mostly Cloudy
12:55 PM 41.9 °F 32.6 °F 23.9 °F 49% 29.76 in 10.0 mi SW 21.9 mph 29.9 mph N/A   Scattered Clouds
1:15 PM 42.8 °F 34.5 °F 23.7 °F 47% 29.75 in 10.0 mi SW 18.4 mph 29.9 mph N/A   Mostly Cloudy
1:35 PM 41.5 °F 32.4 °F 23.4 °F 49% 29.75 in 10.0 mi SW 20.7 mph 25.3 mph N/A   Mostly Cloudy
1:55 PM 42.6 °F 34.6 °F 23.0 °F 46% 29.74 in 10.0 mi WSW 17.3 mph 25.3 mph N/A   Overcast
2:15 PM 43.5 °F 35.2 °F 22.8 °F 44% 29.72 in 10.0 mi WSW 19.6 mph 29.9 mph N/A   Overcast
2:35 PM 43.5 °F 35.0 °F 22.6 °F 44% 29.72 in 10.0 mi SW 20.7 mph 28.8 mph N/A   Overcast
2:55 PM 42.8 °F 35.1 °F 22.3 °F 44% 29.72 in 10.0 mi WSW 16.1 mph 31.1 mph N/A   Overcast
3:15 PM 41.7 °F 32.3 °F 24.4 °F 50% 29.73 in 10.0 mi West 21.9 mph 31.1 mph N/A   Overcast
3:35 PM 37.2 °F 27.3 °F 30.2 °F 76% 29.76 in 10.0 mi WNW 18.4 mph 29.9 mph N/A Rain Light Rain
3:55 PM 33.8 °F 23.9 °F 32.0 °F 93% 29.78 in 4.0 mi West 15.0 mph 19.6 mph N/A Rain Rain
4:15 PM 33.1 °F 22.6 °F 32.2 °F 96% 29.77 in 4.0 mi WSW 16.1 mph 20.7 mph 0.01 in Rain Rain
4:35 PM 32.0 °F 21.2 °F 31.8 °F 99% 29.77 in 1.2 mi WSW 16.1 mph 24.2 mph 0.02 in Snow Light Snow
4:55 PM 32.0 °F 22.1 °F 31.8 °F 99% 29.77 in 1.2 mi WSW 13.8 mph 24.2 mph 0.03 in Snow Light Snow
5:15 PM 31.8 °F 23.3 °F 31.8 °F 100% 29.77 in 1.0 mi WSW 10.4 mph - N/A Snow Light Snow
5:35 PM 32.0 °F 22.5 °F 32.0 °F 100% 29.77 in 7.0 mi WSW 12.7 mph 18.4 mph N/A Rain Light Rain
5:55 PM 32.0 °F 23.0 °F 32.0 °F 100% 29.76 in 10.0 mi SW 11.5 mph - N/A   Overcast
6:15 PM 32.4 °F 24.6 °F 32.0 °F 99% 29.77 in 10.0 mi SW 9.2 mph 17.3 mph N/A   Overcast
6:35 PM 32.9 °F 25.3 °F 32.2 °F 97% 29.77 in 10.0 mi SW 9.2 mph 16.1 mph N/A Rain Light Rain
7:15 PM 33.3 °F 24.1 °F 32.0 °F 95% 29.77 in 10.0 mi SW 12.7 mph 18.4 mph N/A Rain Light Rain
7:35 PM 33.1 °F 23.9 °F 32.0 °F 96% 29.77 in 10.0 mi SW 12.7 mph 18.4 mph N/A Rain Light Rain
7:55 PM 32.5 °F 23.7 °F 32.0 °F 98% 29.77 in 4.0 mi WSW 11.5 mph 18.4 mph N/A Rain Light Rain
8:15 PM 32.2 °F 23.8 °F 32.0 °F 99% 29.75 in 4.0 mi SW 10.4 mph - N/A Rain Light Rain
8:35 PM 32.5 °F 24.2 °F 32.4 °F 99% 29.75 in 10.0 mi SW 10.4 mph - N/A   Overcast
8:55 PM 32.2 °F 23.2 °F 32.0 °F 99% 29.75 in 3.0 mi SW 11.5 mph 16.1 mph N/A Rain Rain
9:15 PM 32.5 °F 23.2 °F 32.4 °F 99% 29.76 in 10.0 mi WSW 12.7 mph - N/A   Overcast
9:35 PM 32.5 °F 24.2 °F 32.4 °F 99% 29.75 in 10.0 mi SW 10.4 mph - N/A Rain Light Rain
9:55 PM 32.9 °F 24.7 °F 32.4 °F 98% 29.75 in 10.0 mi SW 10.4 mph - N/A   Light Drizzle
10:15 PM 32.9 °F 24.1 °F 32.4 °F 98% 29.74 in 10.0 mi SW 11.5 mph 17.3 mph N/A   Overcast
10:35 PM 32.9 °F 24.7 °F 32.2 °F 97% 29.74 in 10.0 mi SW 10.4 mph - N/A   Overcast
10:55 PM 32.9 °F 24.7 °F 32.2 °F 97% 29.74 in 10.0 mi WSW 10.4 mph - N/A   Light Drizzle
11:15 PM 32.5 °F 24.8 °F 32.0 °F 98% 29.72 in 10.0 mi SW 9.2 mph - N/A   Overcast
11:35 PM 32.9 °F 25.9 °F 32.2 °F 97% 29.72 in 10.0 mi WSW 8.1 mph - N/A   Overcast
11:55 PM 32.9 °F 25.3 °F 32.2 °F 97% 29.72 in 10.0 mi SW 9.2 mph - N/A   Overcast